sensor_id;sensor_type;location;lat;lon;timestamp;temperature;humidity
75865;HTU21D;64510;46.704;38.274;2023-03-23T00:01:15;10.11;89.79
75865;HTU21D;64510;46.704;38.274;2023-03-23T00:03:52;10.11;89.76
75865;HTU21D;64510;46.704;38.274;2023-03-23T00:06:19;10.12;89.66
75865;HTU21D;64510;46.704;38.274;2023-03-23T00:08:49;10.12;89.67
75865;HTU21D;64510;46.704;38.274;2023-03-23T00:11:24;10.13;89.59
75865;HTU21D;64510;46.704;38.274;2023-03-23T00:13:52;10.13;89.54
75865;HTU21D;64510;46.704;38.274;2023-03-23T00:16:20;10.11;89.55
75865;HTU21D;64510;46.704;38.274;2023-03-23T00:18:55;10.05;89.66
75865;HTU21D;64510;46.704;38.274;2023-03-23T00:21:23;10.03;89.76
75865;HTU21D;64510;46.704;38.274;2023-03-23T00:26:36;9.94;89.92
75865;HTU21D;64510;46.704;38.274;2023-03-23T00:29:07;9.93;89.89
75865;HTU21D;64510;46.704;38.274;2023-03-23T00:31:35;9.94;89.84
75865;HTU21D;64510;46.704;38.274;2023-03-23T00:34:04;9.93;89.79
75865;HTU21D;64510;46.704;38.274;2023-03-23T00:36:31;9.92;89.82
75865;HTU21D;64510;46.704;38.274;2023-03-23T00:38:57;9.94;89.73
75865;HTU21D;64510;46.704;38.274;2023-03-23T00:41:25;9.94;89.68
75865;HTU21D;64510;46.704;38.274;2023-03-23T00:43:56;9.96;89.56
75865;HTU21D;64510;46.704;38.274;2023-03-23T00:46:24;10.01;89.44
75865;HTU21D;64510;46.704;38.274;2023-03-23T00:48:50;10.05;89.21
75865;HTU21D;64510;46.704;38.274;2023-03-23T00:51:18;10.07;89.03
75865;HTU21D;64510;46.704;38.274;2023-03-23T00:53:44;10.11;88.87
75865;HTU21D;64510;46.704;38.274;2023-03-23T00:56:10;10.08;88.88
75865;HTU21D;64510;46.704;38.274;2023-03-23T00:58:36;10.06;88.94
75865;HTU21D;64510;46.704;38.274;2023-03-23T01:01:03;10.04;88.99
75865;HTU21D;64510;46.704;38.274;2023-03-23T01:03:30;10.03;89.04
75865;HTU21D;64510;46.704;38.274;2023-03-23T01:06:07;10.03;89.09
75865;HTU21D;64510;46.704;38.274;2023-03-23T01:08:34;10.04;89.06
75865;HTU21D;64510;46.704;38.274;2023-03-23T01:11:05;10.05;89.10
75865;HTU21D;64510;46.704;38.274;2023-03-23T01:13:31;10.05;89.08
75865;HTU21D;64510;46.704;38.274;2023-03-23T01:15:57;10.03;89.15
75865;HTU21D;64510;46.704;38.274;2023-03-23T01:18:23;10.00;89.21
75865;HTU21D;64510;46.704;38.274;2023-03-23T01:20:49;10.01;89.21
75865;HTU21D;64510;46.704;38.274;2023-03-23T01:23:15;10.00;89.21
75865;HTU21D;64510;46.704;38.274;2023-03-23T01:25:41;9.99;89.15
75865;HTU21D;64510;46.704;38.274;2023-03-23T01:28:07;9.94;89.18
75865;HTU21D;64510;46.704;38.274;2023-03-23T01:30:33;9.95;89.16
75865;HTU21D;64510;46.704;38.274;2023-03-23T01:32:58;9.93;89.08
75865;HTU21D;64510;46.704;38.274;2023-03-23T01:35:25;9.91;89.06
75865;HTU21D;64510;46.704;38.274;2023-03-23T01:37:51;9.88;89.05
75865;HTU21D;64510;46.704;38.274;2023-03-23T01:40:17;9.82;89.09
75865;HTU21D;64510;46.704;38.274;2023-03-23T01:42:44;9.74;89.29
75865;HTU21D;64510;46.704;38.274;2023-03-23T01:47:51;9.55;89.84
75865;HTU21D;64510;46.704;38.274;2023-03-23T01:50:19;9.50;90.02
75865;HTU21D;64510;46.704;38.274;2023-03-23T01:52:49;9.45;90.12
75865;HTU21D;64510;46.704;38.274;2023-03-23T01:55:17;9.45;90.19
75865;HTU21D;64510;46.704;38.274;2023-03-23T01:57:43;9.44;90.20
75865;HTU21D;64510;46.704;38.274;2023-03-23T02:00:13;9.44;90.18
75865;HTU21D;64510;46.704;38.274;2023-03-23T02:02:49;9.46;90.15
75865;HTU21D;64510;46.704;38.274;2023-03-23T02:08:33;9.45;90.02
75865;HTU21D;64510;46.704;38.274;2023-03-23T02:11:00;9.44;89.99
75865;HTU21D;64510;46.704;38.274;2023-03-23T02:13:28;9.44;90.00
75865;HTU21D;64510;46.704;38.274;2023-03-23T02:16:19;9.44;89.99
75865;HTU21D;64510;46.704;38.274;2023-03-23T02:27:04;9.38;89.99
75865;HTU21D;64510;46.704;38.274;2023-03-23T02:29:48;9.38;89.94
75865;HTU21D;64510;46.704;38.274;2023-03-23T02:33:19;9.38;89.86
75865;HTU21D;64510;46.704;38.274;2023-03-23T02:41:30;9.31;89.76
75865;HTU21D;64510;46.704;38.274;2023-03-23T02:43:57;9.32;89.71
75865;HTU21D;64510;46.704;38.274;2023-03-23T02:46:25;9.29;89.79
75865;HTU21D;64510;46.704;38.274;2023-03-23T02:48:53;9.29;89.82
75865;HTU21D;64510;46.704;38.274;2023-03-23T02:51:22;9.24;89.88
75865;HTU21D;64510;46.704;38.274;2023-03-23T02:53:50;9.21;89.99
75865;HTU21D;64510;46.704;38.274;2023-03-23T02:56:18;9.18;90.11
75865;HTU21D;64510;46.704;38.274;2023-03-23T02:58:46;9.17;90.15
75865;HTU21D;64510;46.704;38.274;2023-03-23T03:04:01;9.12;90.26
75865;HTU21D;64510;46.704;38.274;2023-03-23T03:06:54;9.11;90.28
75865;HTU21D;64510;46.704;38.274;2023-03-23T03:09:44;9.10;90.25
75865;HTU21D;64510;46.704;38.274;2023-03-23T03:15:10;9.05;90.31
75865;HTU21D;64510;46.704;38.274;2023-03-23T03:17:43;9.03;90.28
75865;HTU21D;64510;46.704;38.274;2023-03-23T03:20:12;9.03;90.37
75865;HTU21D;64510;46.704;38.274;2023-03-23T03:22:41;9.02;90.37
75865;HTU21D;64510;46.704;38.274;2023-03-23T03:25:10;9.01;90.35
75865;HTU21D;64510;46.704;38.274;2023-03-23T03:27:40;8.98;90.47
75865;HTU21D;64510;46.704;38.274;2023-03-23T03:30:15;9.02;90.41
75865;HTU21D;64510;46.704;38.274;2023-03-23T03:32:47;9.06;90.31
75865;HTU21D;64510;46.704;38.274;2023-03-23T03:35:15;9.08;90.20
75865;HTU21D;64510;46.704;38.274;2023-03-23T03:37:41;9.09;90.10
75865;HTU21D;64510;46.704;38.274;2023-03-23T03:40:11;9.08;90.12
75865;HTU21D;64510;46.704;38.274;2023-03-23T03:42:40;9.11;90.08
75865;HTU21D;64510;46.704;38.274;2023-03-23T03:45:10;9.10;90.08
75865;HTU21D;64510;46.704;38.274;2023-03-23T03:47:37;9.10;90.06
75865;HTU21D;64510;46.704;38.274;2023-03-23T03:50:04;9.08;90.08
75865;HTU21D;64510;46.704;38.274;2023-03-23T03:52:31;9.07;90.11
75865;HTU21D;64510;46.704;38.274;2023-03-23T03:54:58;9.07;90.11
75865;HTU21D;64510;46.704;38.274;2023-03-23T03:57:24;9.08;90.07
75865;HTU21D;64510;46.704;38.274;2023-03-23T04:00:07;9.09;90.02
75865;HTU21D;64510;46.704;38.274;2023-03-23T04:02:47;9.09;89.93
75865;HTU21D;64510;46.704;38.274;2023-03-23T04:05:17;9.09;89.92
75865;HTU21D;64510;46.704;38.274;2023-03-23T04:07:47;9.09;89.90
75865;HTU21D;64510;46.704;38.274;2023-03-23T04:10:15;9.10;89.92
75865;HTU21D;64510;46.704;38.274;2023-03-23T04:12:43;9.12;89.92
75865;HTU21D;64510;46.704;38.274;2023-03-23T04:15:27;9.12;89.87
75865;HTU21D;64510;46.704;38.274;2023-03-23T04:17:54;9.12;89.86
75865;HTU21D;64510;46.704;38.274;2023-03-23T04:20:24;9.12;89.89
75865;HTU21D;64510;46.704;38.274;2023-03-23T04:22:51;9.15;89.86
75865;HTU21D;64510;46.704;38.274;2023-03-23T04:25:19;9.15;89.82
75865;HTU21D;64510;46.704;38.274;2023-03-23T04:27:51;9.17;89.80
75865;HTU21D;64510;46.704;38.274;2023-03-23T04:30:29;9.17;89.79
75865;HTU21D;64510;46.704;38.274;2023-03-23T04:33:03;9.18;89.83
75865;HTU21D;64510;46.704;38.274;2023-03-23T04:35:29;9.19;89.82
75865;HTU21D;64510;46.704;38.274;2023-03-23T04:38:08;9.21;89.83
75865;HTU21D;64510;46.704;38.274;2023-03-23T04:40:37;9.25;89.81
75865;HTU21D;64510;46.704;38.274;2023-03-23T04:43:14;9.27;89.79
75865;HTU21D;64510;46.704;38.274;2023-03-23T04:45:53;9.33;89.76
75865;HTU21D;64510;46.704;38.274;2023-03-23T04:48:24;9.36;89.70
75865;HTU21D;64510;46.704;38.274;2023-03-23T04:51:07;9.40;89.59
75865;HTU21D;64510;46.704;38.274;2023-03-23T04:53:35;9.42;89.60
75865;HTU21D;64510;46.704;38.274;2023-03-23T04:56:02;9.48;89.59
75865;HTU21D;64510;46.704;38.274;2023-03-23T04:58:33;9.53;89.50
75865;HTU21D;64510;46.704;38.274;2023-03-23T05:01:18;9.57;89.44
75865;HTU21D;64510;46.704;38.274;2023-03-23T05:04:07;9.62;89.38
75865;HTU21D;64510;46.704;38.274;2023-03-23T05:06:33;9.66;89.28
75865;HTU21D;64510;46.704;38.274;2023-03-23T05:09:06;9.70;89.28
75865;HTU21D;64510;46.704;38.274;2023-03-23T05:11:33;9.75;89.22
75865;HTU21D;64510;46.704;38.274;2023-03-23T05:13:59;9.78;89.23
75865;HTU21D;64510;46.704;38.274;2023-03-23T05:16:24;9.83;89.19
75865;HTU21D;64510;46.704;38.274;2023-03-23T05:18:50;9.89;88.96
75865;HTU21D;64510;46.704;38.274;2023-03-23T05:21:18;9.93;88.86
75865;HTU21D;64510;46.704;38.274;2023-03-23T05:23:50;9.99;88.72
75865;HTU21D;64510;46.704;38.274;2023-03-23T05:26:21;10.07;88.64
75865;HTU21D;64510;46.704;38.274;2023-03-23T05:28:51;10.08;88.62
75865;HTU21D;64510;46.704;38.274;2023-03-23T05:31:23;10.10;88.59
75865;HTU21D;64510;46.704;38.274;2023-03-23T05:33:51;10.11;88.57
75865;HTU21D;64510;46.704;38.274;2023-03-23T05:36:40;10.16;88.64
75865;HTU21D;64510;46.704;38.274;2023-03-23T05:39:24;10.23;88.57
75865;HTU21D;64510;46.704;38.274;2023-03-23T05:42:17;10.34;88.47
75865;HTU21D;64510;46.704;38.274;2023-03-23T05:44:49;10.38;88.39
75865;HTU21D;64510;46.704;38.274;2023-03-23T05:47:16;10.42;88.42
75865;HTU21D;64510;46.704;38.274;2023-03-23T05:49:49;10.50;88.40
75865;HTU21D;64510;46.704;38.274;2023-03-23T05:52:18;10.59;88.22
75865;HTU21D;64510;46.704;38.274;2023-03-23T05:54:46;10.60;88.00
75865;HTU21D;64510;46.704;38.274;2023-03-23T05:57:13;10.66;87.97
75865;HTU21D;64510;46.704;38.274;2023-03-23T05:59:49;10.73;87.79
75865;HTU21D;64510;46.704;38.274;2023-03-23T06:02:20;10.78;87.60
75865;HTU21D;64510;46.704;38.274;2023-03-23T06:04:47;10.83;87.38
75865;HTU21D;64510;46.704;38.274;2023-03-23T06:07:25;10.84;87.44
75865;HTU21D;64510;46.704;38.274;2023-03-23T06:09:58;10.89;87.19
75865;HTU21D;64510;46.704;38.274;2023-03-23T06:12:23;10.93;87.01
75865;HTU21D;64510;46.704;38.274;2023-03-23T06:15:09;11.05;86.94
75865;HTU21D;64510;46.704;38.274;2023-03-23T06:18:03;11.19;86.65
75865;HTU21D;64510;46.704;38.274;2023-03-23T06:20:54;11.28;86.38
75865;HTU21D;64510;46.704;38.274;2023-03-23T06:23:40;11.31;86.00
75865;HTU21D;64510;46.704;38.274;2023-03-23T06:26:08;11.29;86.08
75865;HTU21D;64510;46.704;38.274;2023-03-23T06:28:37;11.36;85.98
75865;HTU21D;64510;46.704;38.274;2023-03-23T06:31:05;11.39;85.83
75865;HTU21D;64510;46.704;38.274;2023-03-23T06:33:37;11.40;85.76
75865;HTU21D;64510;46.704;38.274;2023-03-23T06:36:04;11.43;85.57
75865;HTU21D;64510;46.704;38.274;2023-03-23T06:38:53;11.49;85.51
75865;HTU21D;64510;46.704;38.274;2023-03-23T06:41:26;11.62;85.54
75865;HTU21D;64510;46.704;38.274;2023-03-23T06:43:52;11.74;85.45
75865;HTU21D;64510;46.704;38.274;2023-03-23T06:46:24;11.89;85.10
75865;HTU21D;64510;46.704;38.274;2023-03-23T06:49:09;11.94;84.77
75865;HTU21D;64510;46.704;38.274;2023-03-23T06:51:44;11.96;84.71
75865;HTU21D;64510;46.704;38.274;2023-03-23T06:54:11;11.98;84.64
75865;HTU21D;64510;46.704;38.274;2023-03-23T06:56:40;12.03;84.68
75865;HTU21D;64510;46.704;38.274;2023-03-23T06:59:08;12.18;84.45
75865;HTU21D;64510;46.704;38.274;2023-03-23T07:01:36;12.34;84.51
75865;HTU21D;64510;46.704;38.274;2023-03-23T07:04:03;12.67;84.56
75865;HTU21D;64510;46.704;38.274;2023-03-23T07:06:43;12.97;84.18
75865;HTU21D;64510;46.704;38.274;2023-03-23T07:09:09;13.21;83.74
75865;HTU21D;64510;46.704;38.274;2023-03-23T07:11:35;13.43;83.42
75865;HTU21D;64510;46.704;38.274;2023-03-23T07:14:09;13.54;82.95
75865;HTU21D;64510;46.704;38.274;2023-03-23T07:16:36;13.60;82.61
75865;HTU21D;64510;46.704;38.274;2023-03-23T07:19:03;13.69;81.92
75865;HTU21D;64510;46.704;38.274;2023-03-23T07:21:29;13.71;82.03
75865;HTU21D;64510;46.704;38.274;2023-03-23T07:23:55;13.71;81.75
75865;HTU21D;64510;46.704;38.274;2023-03-23T07:26:41;13.68;81.68
75865;HTU21D;64510;46.704;38.274;2023-03-23T07:29:11;13.78;81.36
75865;HTU21D;64510;46.704;38.274;2023-03-23T07:31:41;13.70;81.09
75865;HTU21D;64510;46.704;38.274;2023-03-23T07:34:08;13.70;81.46
75865;HTU21D;64510;46.704;38.274;2023-03-23T07:36:56;13.81;80.92
75865;HTU21D;64510;46.704;38.274;2023-03-23T07:39:24;13.96;80.75
75865;HTU21D;64510;46.704;38.274;2023-03-23T07:41:53;14.24;80.87
75865;HTU21D;64510;46.704;38.274;2023-03-23T07:44:33;14.59;80.27
75865;HTU21D;64510;46.704;38.274;2023-03-23T07:47:05;14.73;79.05
75865;HTU21D;64510;46.704;38.274;2023-03-23T07:49:32;14.70;79.08
75865;HTU21D;64510;46.704;38.274;2023-03-23T07:52:11;14.63;78.66
75865;HTU21D;64510;46.704;38.274;2023-03-23T07:54:39;14.53;78.66
75865;HTU21D;64510;46.704;38.274;2023-03-23T07:57:28;14.49;78.99
75865;HTU21D;64510;46.704;38.274;2023-03-23T07:59:56;14.53;78.69
75865;HTU21D;64510;46.704;38.274;2023-03-23T08:02:24;14.57;78.50
75865;HTU21D;64510;46.704;38.274;2023-03-23T08:05:08;14.60;78.47
75865;HTU21D;64510;46.704;38.274;2023-03-23T08:07:55;14.73;78.28
75865;HTU21D;64510;46.704;38.274;2023-03-23T08:10:51;14.89;77.82
75865;HTU21D;64510;46.704;38.274;2023-03-23T08:13:35;14.97;77.93
75865;HTU21D;64510;46.704;38.274;2023-03-23T08:16:30;15.02;77.84
75865;HTU21D;64510;46.704;38.274;2023-03-23T08:19:25;15.01;77.40
75865;HTU21D;64510;46.704;38.274;2023-03-23T08:22:12;14.96;77.59
75865;HTU21D;64510;46.704;38.274;2023-03-23T08:25:03;14.92;77.76
75865;HTU21D;64510;46.704;38.274;2023-03-23T08:28:00;15.07;77.51
75865;HTU21D;64510;46.704;38.274;2023-03-23T08:30:55;15.12;77.07
75865;HTU21D;64510;46.704;38.274;2023-03-23T08:33:53;15.01;77.34
75865;HTU21D;64510;46.704;38.274;2023-03-23T08:36:38;15.12;77.25
75865;HTU21D;64510;46.704;38.274;2023-03-23T08:39:20;15.15;77.15
75865;HTU21D;64510;46.704;38.274;2023-03-23T08:42:26;15.15;77.13
75865;HTU21D;64510;46.704;38.274;2023-03-23T08:45:19;15.10;77.29
75865;HTU21D;64510;46.704;38.274;2023-03-23T08:48:06;15.07;77.50
75865;HTU21D;64510;46.704;38.274;2023-03-23T08:51:03;15.13;77.34
75865;HTU21D;64510;46.704;38.274;2023-03-23T08:53:41;15.12;77.29
75865;HTU21D;64510;46.704;38.274;2023-03-23T08:56:43;15.10;77.48
75865;HTU21D;64510;46.704;38.274;2023-03-23T08:59:29;15.12;77.30
75865;HTU21D;64510;46.704;38.274;2023-03-23T09:02:11;15.08;77.34
75865;HTU21D;64510;46.704;38.274;2023-03-23T09:05:04;14.97;77.50
75865;HTU21D;64510;46.704;38.274;2023-03-23T09:07:53;14.91;77.78
75865;HTU21D;64510;46.704;38.274;2023-03-23T09:10:20;14.91;77.69
75865;HTU21D;64510;46.704;38.274;2023-03-23T09:12:47;14.92;77.69
75865;HTU21D;64510;46.704;38.274;2023-03-23T09:15:15;14.91;77.51
75865;HTU21D;64510;46.704;38.274;2023-03-23T09:17:46;14.86;77.66
75865;HTU21D;64510;46.704;38.274;2023-03-23T09:20:14;14.83;77.63
75865;HTU21D;64510;46.704;38.274;2023-03-23T09:22:43;14.80;77.71
75865;HTU21D;64510;46.704;38.274;2023-03-23T09:25:14;14.81;77.61
75865;HTU21D;64510;46.704;38.274;2023-03-23T09:27:41;14.81;77.54
75865;HTU21D;64510;46.704;38.274;2023-03-23T09:30:10;14.75;77.50
75865;HTU21D;64510;46.704;38.274;2023-03-23T09:32:38;14.67;77.69
75865;HTU21D;64510;46.704;38.274;2023-03-23T09:35:06;14.71;77.69
75865;HTU21D;64510;46.704;38.274;2023-03-23T09:37:38;14.78;77.57
75865;HTU21D;64510;46.704;38.274;2023-03-23T09:40:07;14.78;77.37
75865;HTU21D;64510;46.704;38.274;2023-03-23T09:48:52;14.80;77.16
75865;HTU21D;64510;46.704;38.274;2023-03-23T09:53:51;14.84;77.05
75865;HTU21D;64510;46.704;38.274;2023-03-23T09:56:20;14.84;76.90
75865;HTU21D;64510;46.704;38.274;2023-03-23T09:58:49;14.84;76.98
75865;HTU21D;64510;46.704;38.274;2023-03-23T10:01:31;14.87;76.60
75865;HTU21D;64510;46.704;38.274;2023-03-23T10:06:51;15.01;76.46
75865;HTU21D;64510;46.704;38.274;2023-03-23T10:09:18;15.04;76.03
75865;HTU21D;64510;46.704;38.274;2023-03-23T10:17:03;15.15;75.42
75865;HTU21D;64510;46.704;38.274;2023-03-23T10:22:08;15.09;75.47
75865;HTU21D;64510;46.704;38.274;2023-03-23T10:24:51;15.07;75.44
75865;HTU21D;64510;46.704;38.274;2023-03-23T10:27:26;15.02;75.44
75865;HTU21D;64510;46.704;38.274;2023-03-23T10:32:46;14.80;75.79
75865;HTU21D;64510;46.704;38.274;2023-03-23T10:35:20;14.77;75.71
75865;HTU21D;64510;46.704;38.274;2023-03-23T10:37:53;14.74;75.62
75865;HTU21D;64510;46.704;38.274;2023-03-23T10:40:24;14.73;75.56
75865;HTU21D;64510;46.704;38.274;2023-03-23T10:42:52;14.68;75.67
75865;HTU21D;64510;46.704;38.274;2023-03-23T10:45:38;14.62;75.67
75865;HTU21D;64510;46.704;38.274;2023-03-23T10:48:15;14.58;75.81
75865;HTU21D;64510;46.704;38.274;2023-03-23T10:50:42;14.56;75.85
75865;HTU21D;64510;46.704;38.274;2023-03-23T10:53:16;14.54;75.84
75865;HTU21D;64510;46.704;38.274;2023-03-23T10:55:42;14.48;75.88
75865;HTU21D;64510;46.704;38.274;2023-03-23T10:58:23;14.44;75.86
75865;HTU21D;64510;46.704;38.274;2023-03-23T11:00:50;14.42;76.00
75865;HTU21D;64510;46.704;38.274;2023-03-23T11:03:24;14.42;75.90
75865;HTU21D;64510;46.704;38.274;2023-03-23T11:06:02;14.42;75.89
75865;HTU21D;64510;46.704;38.274;2023-03-23T11:08:52;14.40;75.93
75865;HTU21D;64510;46.704;38.274;2023-03-23T11:11:20;14.38;76.04
75865;HTU21D;64510;46.704;38.274;2023-03-23T11:13:57;14.42;75.76
75865;HTU21D;64510;46.704;38.274;2023-03-23T11:16:29;14.41;75.67
75865;HTU21D;64510;46.704;38.274;2023-03-23T11:19:00;14.39;75.60
75865;HTU21D;64510;46.704;38.274;2023-03-23T11:21:38;14.39;75.59
75865;HTU21D;64510;46.704;38.274;2023-03-23T11:24:05;14.38;75.42
75865;HTU21D;64510;46.704;38.274;2023-03-23T11:26:35;14.36;75.34
75865;HTU21D;64510;46.704;38.274;2023-03-23T11:29:14;14.36;75.19
75865;HTU21D;64510;46.704;38.274;2023-03-23T11:31:44;14.35;75.13
75865;HTU21D;64510;46.704;38.274;2023-03-23T11:34:40;14.37;74.62
75865;HTU21D;64510;46.704;38.274;2023-03-23T11:37:13;14.42;74.76
75865;HTU21D;64510;46.704;38.274;2023-03-23T11:42:19;14.45;74.73
75865;HTU21D;64510;46.704;38.274;2023-03-23T11:44:45;14.48;74.76
75865;HTU21D;64510;46.704;38.274;2023-03-23T11:47:32;14.55;74.17
75865;HTU21D;64510;46.704;38.274;2023-03-23T11:50:18;14.56;74.09
75865;HTU21D;64510;46.704;38.274;2023-03-23T11:52:49;14.58;74.12
75865;HTU21D;64510;46.704;38.274;2023-03-23T11:55:25;14.60;73.94
75865;HTU21D;64510;46.704;38.274;2023-03-23T11:57:53;14.57;74.05
75865;HTU21D;64510;46.704;38.274;2023-03-23T12:00:22;14.55;73.96
75865;HTU21D;64510;46.704;38.274;2023-03-23T12:06:06;14.51;73.77
75865;HTU21D;64510;46.704;38.274;2023-03-23T12:17:23;14.57;73.52
75865;HTU21D;64510;46.704;38.274;2023-03-23T12:22:42;14.64;73.25
75865;HTU21D;64510;46.704;38.274;2023-03-23T12:33:17;14.68;72.95
75865;HTU21D;64510;46.704;38.274;2023-03-23T12:41:44;14.82;71.96
75865;HTU21D;64510;46.704;38.274;2023-03-23T12:44:13;14.80;71.87
75865;HTU21D;64510;46.704;38.274;2023-03-23T12:49:54;14.75;71.72
75865;HTU21D;64510;46.704;38.274;2023-03-23T12:57:43;14.71;71.71
75865;HTU21D;64510;46.704;38.274;2023-03-23T13:00:28;14.67;72.01
75865;HTU21D;64510;46.704;38.274;2023-03-23T13:03:09;14.58;71.98
75865;HTU21D;64510;46.704;38.274;2023-03-23T13:08:42;14.49;72.33
75865;HTU21D;64510;46.704;38.274;2023-03-23T13:11:28;14.44;72.20
75865;HTU21D;64510;46.704;38.274;2023-03-23T13:14:11;14.43;72.24
75865;HTU21D;64510;46.704;38.274;2023-03-23T13:22:23;14.37;72.40
75865;HTU21D;64510;46.704;38.274;2023-03-23T13:24:59;14.35;72.48
75865;HTU21D;64510;46.704;38.274;2023-03-23T13:27:27;14.33;72.59
75865;HTU21D;64510;46.704;38.274;2023-03-23T13:29:55;14.28;72.71
75865;HTU21D;64510;46.704;38.274;2023-03-23T13:32:23;14.25;72.97
75865;HTU21D;64510;46.704;38.274;2023-03-23T13:34:49;14.22;73.16
75865;HTU21D;64510;46.704;38.274;2023-03-23T13:37:21;14.20;73.24
75865;HTU21D;64510;46.704;38.274;2023-03-23T13:42:29;14.15;73.42
75865;HTU21D;64510;46.704;38.274;2023-03-23T13:45:35;14.10;73.50
75865;HTU21D;64510;46.704;38.274;2023-03-23T13:48:19;14.08;73.61
75865;HTU21D;64510;46.704;38.274;2023-03-23T13:50:58;14.05;73.75
75865;HTU21D;64510;46.704;38.274;2023-03-23T13:56:36;13.97;74.10
75865;HTU21D;64510;46.704;38.274;2023-03-23T14:02:27;13.55;75.48
75865;HTU21D;64510;46.704;38.274;2023-03-23T14:04:46;13.43;75.94
75865;HTU21D;64510;46.704;38.274;2023-03-23T14:07:16;13.37;76.41
75865;HTU21D;64510;46.704;38.274;2023-03-23T14:09:44;13.39;76.44
75865;HTU21D;64510;46.704;38.274;2023-03-23T14:12:37;13.45;76.59
75865;HTU21D;64510;46.704;38.274;2023-03-23T14:15:03;13.46;76.54
75865;HTU21D;64510;46.704;38.274;2023-03-23T14:17:40;13.43;76.68
75865;HTU21D;64510;46.704;38.274;2023-03-23T14:20:07;13.39;76.70
75865;HTU21D;64510;46.704;38.274;2023-03-23T14:22:39;13.38;76.71
75865;HTU21D;64510;46.704;38.274;2023-03-23T14:25:27;13.43;76.65
75865;HTU21D;64510;46.704;38.274;2023-03-23T14:27:54;13.43;76.63
75865;HTU21D;64510;46.704;38.274;2023-03-23T14:30:22;13.39;76.82
75865;HTU21D;64510;46.704;38.274;2023-03-23T14:32:51;13.36;76.95
75865;HTU21D;64510;46.704;38.274;2023-03-23T14:35:27;13.39;76.89
75865;HTU21D;64510;46.704;38.274;2023-03-23T14:37:55;13.43;76.82
75865;HTU21D;64510;46.704;38.274;2023-03-23T14:40:21;13.45;76.78
75865;HTU21D;64510;46.704;38.274;2023-03-23T14:42:49;13.47;76.57
75865;HTU21D;64510;46.704;38.274;2023-03-23T14:45:18;13.49;76.51
75865;HTU21D;64510;46.704;38.274;2023-03-23T14:47:51;13.49;76.41
75865;HTU21D;64510;46.704;38.274;2023-03-23T14:50:30;13.50;76.34
75865;HTU21D;64510;46.704;38.274;2023-03-23T14:53:07;13.55;76.08
75865;HTU21D;64510;46.704;38.274;2023-03-23T14:55:35;13.56;75.91
75865;HTU21D;64510;46.704;38.274;2023-03-23T14:58:08;13.59;75.70
75865;HTU21D;64510;46.704;38.274;2023-03-23T15:00:41;13.61;75.56
75865;HTU21D;64510;46.704;38.274;2023-03-23T15:03:12;13.63;75.33
75865;HTU21D;64510;46.704;38.274;2023-03-23T15:05:46;13.67;74.96
75865;HTU21D;64510;46.704;38.274;2023-03-23T15:08:18;13.68;74.64
75865;HTU21D;64510;46.704;38.274;2023-03-23T15:11:27;13.61;74.43
75865;HTU21D;64510;46.704;38.274;2023-03-23T15:13:46;13.56;74.36
75865;HTU21D;64510;46.704;38.274;2023-03-23T15:16:35;13.55;74.25
75865;HTU21D;64510;46.704;38.274;2023-03-23T15:19:06;13.59;73.96
75865;HTU21D;64510;46.704;38.274;2023-03-23T15:21:56;13.63;74.04
75865;HTU21D;64510;46.704;38.274;2023-03-23T15:26:52;13.71;73.77
75865;HTU21D;64510;46.704;38.274;2023-03-23T15:29:20;13.74;73.69
75865;HTU21D;64510;46.704;38.274;2023-03-23T15:31:53;13.74;73.69
75865;HTU21D;64510;46.704;38.274;2023-03-23T15:34:27;13.77;73.64
75865;HTU21D;64510;46.704;38.274;2023-03-23T15:36:56;13.79;73.61
75865;HTU21D;64510;46.704;38.274;2023-03-23T15:39:23;13.79;73.51
75865;HTU21D;64510;46.704;38.274;2023-03-23T15:41:50;13.78;73.48
75865;HTU21D;64510;46.704;38.274;2023-03-23T15:44:27;13.75;73.40
75865;HTU21D;64510;46.704;38.274;2023-03-23T15:47:12;13.70;73.35
75865;HTU21D;64510;46.704;38.274;2023-03-23T15:49:39;13.66;73.60
75865;HTU21D;64510;46.704;38.274;2023-03-23T15:52:09;13.64;73.64
75865;HTU21D;64510;46.704;38.274;2023-03-23T15:54:36;13.63;73.72
75865;HTU21D;64510;46.704;38.274;2023-03-23T15:57:02;13.63;73.68
75865;HTU21D;64510;46.704;38.274;2023-03-23T15:59:28;13.62;73.72
75865;HTU21D;64510;46.704;38.274;2023-03-23T16:01:54;13.62;73.70
75865;HTU21D;64510;46.704;38.274;2023-03-23T16:04:20;13.65;73.65
75865;HTU21D;64510;46.704;38.274;2023-03-23T16:06:47;13.65;73.70
75865;HTU21D;64510;46.704;38.274;2023-03-23T16:09:22;13.60;73.83
75865;HTU21D;64510;46.704;38.274;2023-03-23T16:11:47;13.56;73.97
75865;HTU21D;64510;46.704;38.274;2023-03-23T16:14:13;13.59;73.91
75865;HTU21D;64510;46.704;38.274;2023-03-23T16:16:47;13.60;73.90
75865;HTU21D;64510;46.704;38.274;2023-03-23T16:19:15;13.59;73.90
75865;HTU21D;64510;46.704;38.274;2023-03-23T16:21:41;13.61;73.93
75865;HTU21D;64510;46.704;38.274;2023-03-23T16:24:08;13.67;73.67
75865;HTU21D;64510;46.704;38.274;2023-03-23T16:26:35;13.79;73.32
75865;HTU21D;64510;46.704;38.274;2023-03-23T16:29:01;13.93;72.58
75865;HTU21D;64510;46.704;38.274;2023-03-23T16:31:28;14.07;72.02
75865;HTU21D;64510;46.704;38.274;2023-03-23T16:33:54;14.12;71.71
75865;HTU21D;64510;46.704;38.274;2023-03-23T16:36:20;14.13;71.72
75865;HTU21D;64510;46.704;38.274;2023-03-23T16:38:46;14.14;71.75
75865;HTU21D;64510;46.704;38.274;2023-03-23T16:41:11;14.19;71.61
75865;HTU21D;64510;46.704;38.274;2023-03-23T16:43:37;14.21;71.55
75865;HTU21D;64510;46.704;38.274;2023-03-23T16:46:04;14.27;71.36
75865;HTU21D;64510;46.704;38.274;2023-03-23T16:48:30;14.24;71.30
75865;HTU21D;64510;46.704;38.274;2023-03-23T16:50:55;14.19;71.47
75865;HTU21D;64510;46.704;38.274;2023-03-23T16:53:22;14.13;71.71
75865;HTU21D;64510;46.704;38.274;2023-03-23T16:55:52;14.08;71.95
75865;HTU21D;64510;46.704;38.274;2023-03-23T16:58:19;14.01;72.16
75865;HTU21D;64510;46.704;38.274;2023-03-23T17:00:49;14.01;72.14
75865;HTU21D;64510;46.704;38.274;2023-03-23T17:03:18;14.01;72.09
75865;HTU21D;64510;46.704;38.274;2023-03-23T17:05:47;13.96;72.35
75865;HTU21D;64510;46.704;38.274;2023-03-23T17:08:17;13.83;72.87
75865;HTU21D;64510;46.704;38.274;2023-03-23T17:10:44;13.65;73.42
75865;HTU21D;64510;46.704;38.274;2023-03-23T17:13:10;13.51;74.02
75865;HTU21D;64510;46.704;38.274;2023-03-23T17:15:38;13.37;74.64
75865;HTU21D;64510;46.704;38.274;2023-03-23T17:18:04;13.26;75.17
75865;HTU21D;64510;46.704;38.274;2023-03-23T17:20:31;13.25;75.37
75865;HTU21D;64510;46.704;38.274;2023-03-23T17:22:57;13.36;75.12
75865;HTU21D;64510;46.704;38.274;2023-03-23T17:25:25;13.53;74.58
75865;HTU21D;64510;46.704;38.274;2023-03-23T17:27:51;13.69;74.01
75865;HTU21D;64510;46.704;38.274;2023-03-23T17:30:17;13.79;73.53